createdAt,value
2022-08-19T04:15:16.362Z,53.67
2022-08-19T04:18:18.713Z,54.79
2022-08-19T04:21:24.288Z,54.14
2022-08-19T04:24:27.031Z,54.47
2022-08-19T04:27:29.279Z,53.73
2022-08-19T04:30:31.633Z,53.43
2022-08-19T04:33:33.881Z,53.64
2022-08-19T04:36:37.865Z,53.49
2022-08-19T04:40:01.922Z,53.79
2022-08-19T04:43:05.037Z,53.48
2022-08-19T04:46:10.033Z,54.19
2022-08-19T04:49:13.843Z,53.66
2022-08-19T04:52:15.977Z,53.78
2022-08-19T04:55:18.906Z,53.74
2022-08-19T04:58:20.986Z,53.58
2022-08-19T05:01:26.750Z,53.51
2022-08-19T05:04:32.549Z,53.88
2022-08-19T05:07:35.429Z,54.31
2022-08-19T05:10:39.526Z,53.64
2022-08-19T05:13:43.805Z,53.79
2022-08-19T05:16:45.897Z,53.79
2022-08-19T05:20:06.712Z,53.41
2022-08-19T05:23:21.875Z,53.29
2022-08-19T05:26:26.928Z,52.64
2022-08-19T05:29:36.180Z,52.02
2022-08-19T05:32:40.132Z,51.37
2022-08-19T05:35:42.269Z,51.03
2022-08-19T05:38:44.615Z,51.06
2022-08-19T05:41:58.011Z,51.04
2022-08-19T05:45:00.342Z,51.09
2022-08-19T05:48:02.498Z,50.50
2022-08-19T05:51:09.177Z,50.75
2022-08-19T05:54:14.217Z,50.84
2022-08-19T05:57:16.720Z,50.27
2022-08-19T06:00:22.711Z,50.25
2022-08-19T06:03:27.150Z,50.36
2022-08-19T06:06:29.250Z,50.21
2022-08-19T06:09:31.793Z,50.04
2022-08-19T06:12:35.539Z,50.13
2022-08-19T06:15:38.033Z,49.87
2022-08-19T06:18:40.117Z,49.92
2022-08-19T06:21:45.895Z,50.23
2022-08-19T06:24:48.035Z,49.76
2022-08-19T06:28:13.980Z,49.48
2022-08-19T06:31:17.063Z,49.44
2022-08-19T06:34:20.590Z,49.28
2022-08-19T06:37:23.220Z,48.37
2022-08-19T06:40:28.355Z,48.41
2022-08-19T06:43:30.621Z,48.22
2022-08-19T06:46:33.570Z,48.01
2022-08-19T06:49:37.704Z,47.66
2022-08-19T06:52:41.066Z,47.23
2022-08-19T06:55:43.249Z,47.21
2022-08-19T06:58:47.581Z,47.21
2022-08-19T07:01:52.330Z,46.85
2022-08-19T07:04:54.800Z,46.88
2022-08-19T07:08:01.646Z,46.30
2022-08-19T07:11:10.787Z,45.81
2022-08-19T07:14:16.682Z,45.70
2022-08-19T07:17:22.130Z,45.51
2022-08-19T07:20:28.657Z,44.30
2022-08-19T07:23:32.032Z,43.92
2022-08-19T07:26:39.810Z,44.50
2022-08-19T07:29:44.573Z,43.62
2022-08-19T07:32:46.674Z,43.44
2022-08-19T07:35:52.961Z,43.58
2022-08-19T07:38:55.529Z,43.01
2022-08-19T07:42:00.869Z,43.35
2022-08-19T07:45:04.151Z,42.81
2022-08-19T07:48:06.682Z,42.47
2022-08-19T07:51:11.002Z,42.40
2022-08-19T07:54:18.438Z,41.85
2022-08-19T07:57:20.522Z,41.09
2022-08-19T08:00:24.535Z,41.01
2022-08-19T08:03:47.851Z,41.33
2022-08-19T08:07:08.733Z,41.23
2022-08-19T08:10:20.525Z,40.73
2022-08-19T08:13:23.719Z,39.71
2022-08-19T08:16:32.026Z,40.06
2022-08-19T08:19:35.090Z,39.25
2022-08-19T08:22:56.409Z,39.42
2022-08-19T08:25:59.194Z,39.25
2022-08-19T08:29:02.324Z,38.25
2022-08-19T08:32:15.602Z,37.92
2022-08-19T08:35:22.316Z,37.34
2022-08-19T08:38:24.326Z,36.50
2022-08-19T08:41:32.842Z,36.58
2022-08-19T08:44:37.703Z,35.81
2022-08-19T08:47:42.694Z,35.58
2022-08-19T08:50:49.359Z,35.23
2022-08-19T08:53:56.115Z,35.24
2022-08-19T08:56:59.177Z,34.73
2022-08-19T09:00:07.185Z,34.62
2022-08-19T09:03:21.674Z,34.96
2022-08-19T09:07:26.184Z,35.14
2022-08-19T09:10:44.321Z,35.70
2022-08-19T09:14:15.736Z,35.88
2022-08-19T09:17:32.056Z,35.89
2022-08-19T09:20:34.684Z,34.97
2022-08-19T09:23:38.142Z,35.44
2022-08-19T09:26:47.614Z,34.85
2022-08-19T09:29:55.785Z,34.78
2022-08-19T09:32:58.143Z,33.73
2022-08-19T09:36:08.938Z,33.94
2022-08-19T09:39:16.457Z,33.39
2022-08-19T09:42:29.793Z,33.50
2022-08-19T09:45:33.236Z,33.16
2022-08-19T09:48:38.073Z,32.86
2022-08-19T09:51:40.915Z,32.70
2022-08-19T09:54:44.155Z,32.97
2022-08-19T09:57:46.643Z,32.17
2022-08-19T10:00:50.919Z,31.88
2022-08-19T10:03:58.211Z,31.65
2022-08-19T10:07:00.184Z,31.31
2022-08-19T10:10:07.074Z,31.25
2022-08-19T10:13:09.822Z,31.20
2022-08-19T10:16:22.903Z,31.50
2022-08-19T10:19:36.744Z,31.25
2022-08-19T10:22:39.153Z,30.88
2022-08-19T10:25:41.840Z,30.96
2022-08-19T10:28:47.150Z,30.97
2022-08-19T10:32:02.138Z,30.32
2022-08-19T10:35:09.281Z,30.73
2022-08-19T10:38:11.634Z,30.81
